Terminal Aerodrome Forecast
Issued by NWS North Platte, NE

Home | Current Version | Previous Version | Text Only | Print | Product List | Glossary Off
Versions: 1 2 3 4 5 6 7 8 9 10 11 12 13 14 15 16 17 18

000
FTUS43 KLBF 210520
TAFVTN
TAF
KVTN 210520Z 2106/2206 16012KT P6SM SKC
     FM210900 16012KT P6SM FEW250 WS015/17045KT
     FM211400 17015G22KT P6SM FEW250
     FM212100 18012G18KT P6SM SKC
     FM220000 14009KT P6SM SKC=

USA.gov is the U.S. government's official web portal to all federal, state and local government web resources and services.